Time;durP1;ratioP1;P1;durP2;ratioP2;P2;SDS_P1;SDS_P2;PMS_P1;PMS_P2;Temp;Humidity;BMP_temperature;BMP_pressure;BME280_temperature;BME280_humidity;BME280_pressure;Samples;Min_cycle;Max_cycle;Signal;HPM_P1;HPM_P2
2022/05/14 00:02:19;;;;;;;;;;;;;;;13.65;54.54;98423.72;5133334;27;20451;-57
2022/05/14 00:04:47;;;;;;;;;;;;;;;13.85;53.99;98422.31;5132057;27;19926;-57
2022/05/14 00:07:15;;;;;;;;;;;;;;;13.73;54.45;98416.66;5150133;27;19971;-54
2022/05/14 00:09:43;;;;;;;;;;;;;;;13.75;54.19;98417.16;5141550;27;19979;-56
2022/05/14 00:14:58;;;;;;;;;;;;;;;13.77;53.97;98415.69;5151678;27;19953;-56
2022/05/14 00:17:26;;;;;;;;;;;;;;;13.71;54.34;98422.44;5143835;27;19918;-57
2022/05/14 00:19:54;;;;;;;;;;;;;;;13.81;54.07;98419.41;5148207;27;19919;-55
2022/05/14 00:22:21;;;;;;;;;;;;;;;13.76;54.23;98407.84;5135000;27;19923;-56
2022/05/14 00:24:50;;;;;;;;;;;;;;;13.79;53.96;98412.63;5149271;27;19935;-57
2022/05/14 00:27:22;;;;;;;;;;;;;;;13.68;54.49;98405.88;5144010;27;20264;-55
2022/05/14 00:29:50;;;;;;;;;;;;;;;13.65;54.54;98410.06;5149332;27;20217;-51
2022/05/14 00:32:18;;;;;;;;;;;;;;;13.54;54.60;98401.38;5140048;27;20015;-57
2022/05/14 00:34:46;;;;;;;;;;;;;;;13.52;54.59;98414.53;5147928;27;20474;-54
2022/05/14 00:37:14;;;;;;;;;;;;;;;13.42;54.73;98403.91;5128390;27;20378;-57
2022/05/14 00:39:42;;;;;;;;;;;;;;;13.37;55.03;98415.00;5154329;27;20039;-56
2022/05/14 00:42:10;;;;;;;;;;;;;;;13.26;55.26;98398.13;5155146;27;19971;-56
2022/05/14 00:44:39;;;;;;;;;;;;;;;13.21;55.61;98402.84;5151385;27;19927;-56
2022/05/14 00:47:11;;;;;;;;;;;;;;;13.04;55.65;98404.41;5153605;27;19946;-56
2022/05/14 00:49:39;;;;;;;;;;;;;;;12.96;55.73;98405.19;5127585;27;19923;-57
2022/05/14 00:52:08;;;;;;;;;;;;;;;13.19;55.00;98403.19;5150789;27;19951;-56
2022/05/14 00:54:36;;;;;;;;;;;;;;;13.27;54.66;98412.56;5141413;27;20006;-56
2022/05/14 00:57:10;;;;;;;;;;;;;;;13.22;55.00;98407.25;5143112;27;19990;-56
2022/05/14 00:59:46;;;;;;;;;;;;;;;13.05;55.57;98416.94;5141514;27;19983;-56
2022/05/14 01:02:14;;;;;;;;;;;;;;;13.10;55.32;98405.91;5132974;27;19923;-55
2022/05/14 01:04:42;;;;;;;;;;;;;;;13.27;54.80;98399.72;5140273;27;20207;-56
2022/05/14 01:07:12;;;;;;;;;;;;;;;13.19;55.09;98400.44;5136624;27;19923;-56
2022/05/14 01:09:44;;;;;;;;;;;;;;;13.13;55.14;98403.63;5138746;27;20014;-57
2022/05/14 01:12:12;;;;;;;;;;;;;;;13.10;55.26;98405.91;5140001;27;19931;-56
2022/05/14 01:14:43;;;;;;;;;;;;;;;13.14;55.10;98413.44;5126267;27;19973;-56
2022/05/14 01:17:11;;;;;;;;;;;;;;;13.09;55.04;98406.97;5143431;27;19935;-56
2022/05/14 01:19:42;;;;;;;;;;;;;;;13.15;55.11;98401.38;5136943;27;20682;-56
2022/05/14 01:22:17;;;;;;;;;;;;;;;12.96;55.85;98418.03;5156773;27;19937;-54
2022/05/14 01:27:46;;;;;;;;;;;;;;;12.76;56.27;98403.00;5148521;27;20402;-55
2022/05/14 01:30:14;;;;;;;;;;;;;;;12.77;56.21;98402.69;5138221;27;19930;-54
2022/05/14 01:33:04;;;;;;;;;;;;;;;12.74;56.13;98399.78;5133656;27;19919;-59
2022/05/14 01:35:39;;;;;;;;;;;;;;;12.77;55.85;98402.69;5134708;27;20345;-56
2022/05/14 01:38:09;;;;;;;;;;;;;;;12.74;56.08;98405.25;5154098;27;20018;-57
2022/05/14 01:40:37;;;;;;;;;;;;;;;12.65;56.53;98407.13;5138808;27;19919;-56
2022/05/14 01:43:07;;;;;;;;;;;;;;;12.68;56.27;98403.78;5152971;27;20013;-56
2022/05/14 01:45:35;;;;;;;;;;;;;;;12.68;56.47;98406.50;5131098;27;19922;-57
2022/05/14 01:48:05;;;;;;;;;;;;;;;12.65;56.37;98405.19;5135557;27;19926;-57
2022/05/14 01:50:33;;;;;;;;;;;;;;;12.68;56.37;98403.78;5154074;27;19964;-53
2022/05/14 01:53:02;;;;;;;;;;;;;;;12.70;56.40;98404.25;5146724;27;19926;-57
2022/05/14 01:55:30;;;;;;;;;;;;;;;12.58;56.64;98402.91;5147927;27;19919;-54
2022/05/14 01:57:59;;;;;;;;;;;;;;;12.46;57.09;98405.38;5135360;27;19986;-56
2022/05/14 02:00:38;;;;;;;;;;;;;;;12.52;56.85;98403.38;5133912;27;19935;-59
2022/05/14 02:03:07;;;;;;;;;;;;;;;12.44;56.69;98406.84;5127110;27;19954;-59
2022/05/14 02:05:35;;;;;;;;;;;;;;;12.46;56.69;98404.59;5130835;27;20354;-58
2022/05/14 02:08:02;;;;;;;;;;;;;;;12.54;56.69;98395.69;5124889;27;20001;-59
2022/05/14 02:10:30;;;;;;;;;;;;;;;12.39;56.93;98401.50;5149170;27;19923;-59
2022/05/14 02:12:59;;;;;;;;;;;;;;;12.49;56.28;98393.88;5131921;27;19998;-59
2022/05/14 02:15:34;;;;;;;;;;;;;;;12.47;56.36;98396.13;5127644;27;20335;-59
2022/05/14 02:18:06;;;;;;;;;;;;;;;12.42;56.53;98388.06;5122880;27;20632;-58
2022/05/14 02:20:34;;;;;;;;;;;;;;;12.41;56.72;98386.47;5141227;27;19948;-59
2022/05/14 02:23:02;;;;;;;;;;;;;;;12.32;56.86;98391.06;5148143;27;19923;-49
2022/05/14 02:25:30;;;;;;;;;;;;;;;12.20;57.09;98390.81;5138620;27;19919;-60
2022/05/14 02:27:58;;;;;;;;;;;;;;;12.20;57.06;98396.28;5123534;27;19923;-57
2022/05/14 02:30:26;;;;;;;;;;;;;;;12.21;56.88;98395.94;5136818;27;19961;-59
2022/05/14 02:32:54;;;;;;;;;;;;;;;12.19;56.82;98394.63;5126969;27;19942;-58
2022/05/14 02:35:24;;;;;;;;;;;;;;;12.05;57.15;98390.06;5139857;27;19948;-48
2022/05/14 02:37:52;;;;;;;;;;;;;;;11.84;57.75;98388.94;5119283;27;19923;-58
2022/05/14 02:40:21;;;;;;;;;;;;;;;11.68;58.08;98385.72;5153222;27;20014;-59
2022/05/14 02:42:49;;;;;;;;;;;;;;;11.64;58.38;98383.94;5156734;27;19967;-57
2022/05/14 02:45:17;;;;;;;;;;;;;;;11.84;57.50;98383.50;5153545;27;19965;-59
2022/05/14 02:47:45;;;;;;;;;;;;;;;11.73;57.66;98382.91;5159498;27;20017;-59
2022/05/14 02:50:13;;;;;;;;;;;;;;;11.78;57.78;98377.34;5138439;27;19967;-58
2022/05/14 02:52:42;;;;;;;;;;;;;;;11.79;57.57;98383.59;5155818;27;19927;-58
2022/05/14 02:55:12;;;;;;;;;;;;;;;11.58;58.02;98382.44;5132891;27;20383;-59
2022/05/14 02:57:40;;;;;;;;;;;;;;;11.35;58.74;98379.66;5151845;27;19931;-59
2022/05/14 03:00:09;;;;;;;;;;;;;;;11.40;58.61;98373.28;5130655;27;19919;-59
2022/05/14 03:02:41;;;;;;;;;;;;;;;11.43;58.23;98378.94;5129351;27;20033;-59
2022/05/14 03:05:10;;;;;;;;;;;;;;;11.42;58.51;98379.25;5133811;27;19919;-59
2022/05/14 03:07:39;;;;;;;;;;;;;;;11.42;58.38;98377.31;5153336;27;19926;-59
2022/05/14 03:10:31;;;;;;;;;;;;;;;11.36;58.33;98385.91;5149666;27;19964;-59
2022/05/14 03:13:03;;;;;;;;;;;;;;;11.52;57.76;98376.28;5124812;27;19923;-59
2022/05/14 03:15:31;;;;;;;;;;;;;;;11.26;58.71;98374.13;5121535;27;19972;-59
2022/05/14 03:17:59;;;;;;;;;;;;;;;11.09;59.37;98373.13;5122685;27;19923;-59
2022/05/14 03:20:27;;;;;;;;;;;;;;;11.01;59.64;98372.72;5146513;27;19919;-59
2022/05/14 03:22:55;;;;;;;;;;;;;;;10.97;59.94;98373.63;5114542;27;19931;-55
2022/05/14 03:25:24;;;;;;;;;;;;;;;10.93;59.96;98373.44;5150141;27;19927;-52
2022/05/14 03:27:55;;;;;;;;;;;;;;;10.91;59.93;98383.00;5154332;27;19959;-58
2022/05/14 03:30:25;;;;;;;;;;;;;;;10.85;60.35;98376.84;5162683;27;20381;-58
2022/05/14 03:32:53;;;;;;;;;;;;;;;11.09;59.94;98378.56;5124028;27;20017;-53
2022/05/14 03:35:21;;;;;;;;;;;;;;;11.09;59.67;98384.81;5161901;27;19971;-57
2022/05/14 03:37:50;;;;;;;;;;;;;;;11.07;59.63;98386.22;5152235;27;19932;-58
2022/05/14 03:40:18;;;;;;;;;;;;;;;11.15;59.41;98389.03;5136247;27;19920;-59
2022/05/14 03:42:46;;;;;;;;;;;;;;;11.20;59.00;98386.22;5160739;27;19923;-59
2022/05/14 03:45:14;;;;;;;;;;;;;;;11.27;58.95;98393.97;5146032;27;20006;-58
2022/05/14 03:47:43;;;;;;;;;;;;;;;11.21;58.90;98392.47;5156470;27;20147;-58
2022/05/14 03:50:11;;;;;;;;;;;;;;;11.25;58.75;98393.47;5140626;27;19922;-59
2022/05/14 03:52:39;;;;;;;;;;;;;;;11.30;58.80;98401.53;5154002;27;19919;-57
2022/05/14 03:55:07;;;;;;;;;;;;;;;11.27;58.69;98402.91;5121463;27;19964;-59
2022/05/14 03:57:38;;;;;;;;;;;;;;;11.24;59.02;98400.03;5143383;27;19919;-59
2022/05/14 04:00:08;;;;;;;;;;;;;;;11.30;58.84;98401.53;5137348;27;19926;-59
2022/05/14 04:02:51;;;;;;;;;;;;;;;11.30;58.67;98400.72;5114879;27;19927;-59
2022/05/14 04:05:20;;;;;;;;;;;;;;;11.23;59.10;98407.34;5117253;27;19923;-56
2022/05/14 04:07:49;;;;;;;;;;;;;;;11.36;58.70;98404.94;5112902;27;20011;-58
2022/05/14 04:10:17;;;;;;;;;;;;;;;11.34;58.97;98402.50;5120517;27;19919;-59
2022/05/14 04:12:47;;;;;;;;;;;;;;;11.44;58.50;98396.84;5142189;27;20101;-58
2022/05/14 04:15:16;;;;;;;;;;;;;;;11.46;58.38;98394.66;5114984;27;19990;-59
2022/05/14 04:17:49;;;;;;;;;;;;;;;11.48;58.25;98392.41;5137032;27;19919;-59
2022/05/14 04:20:17;;;;;;;;;;;;;;;11.56;58.15;98390.91;5128039;27;19958;-59
2022/05/14 04:22:50;;;;;;;;;;;;;;;11.54;58.04;98396.63;5118442;27;19922;-59
2022/05/14 04:25:19;;;;;;;;;;;;;;;11.51;58.21;98399.19;5127203;27;19920;-59
2022/05/14 04:27:52;;;;;;;;;;;;;;;11.55;58.01;98402.88;5124447;27;19919;-58
2022/05/14 04:30:20;;;;;;;;;;;;;;;11.58;58.16;98404.19;5115587;27;19923;-58
2022/05/14 04:32:54;;;;;;;;;;;;;;;11.57;58.41;98400.69;5111128;27;20406;-59
2022/05/14 04:35:22;;;;;;;;;;;;;;;11.45;58.53;98403.94;5129585;27;19959;-57
2022/05/14 04:37:56;;;;;;;;;;;;;;;11.42;58.46;98404.53;5144346;27;19988;-58
2022/05/14 04:40:24;;;;;;;;;;;;;;;11.59;58.14;98403.09;5125420;27;20283;-58
2022/05/14 04:42:57;;;;;;;;;;;;;;;11.51;58.54;98401.91;5105975;27;19945;-59
2022/05/14 04:45:26;;;;;;;;;;;;;;;11.55;58.67;98402.88;5131119;27;20364;-58
2022/05/14 04:47:59;;;;;;;;;;;;;;;11.55;58.76;98409.13;5122710;27;19976;-58
2022/05/14 04:50:28;;;;;;;;;;;;;;;11.42;59.28;98401.81;5143803;27;19964;-59
2022/05/14 04:55:49;;;;;;;;;;;;;;;11.81;58.26;98411.28;5141268;27;20393;-56
2022/05/14 04:58:18;;;;;;;;;;;;;;;11.71;58.82;98411.50;5132932;27;19919;-50
2022/05/14 05:00:47;;;;;;;;;;;;;;;11.67;59.11;98415.97;5123094;27;19926;-50
2022/05/14 05:03:19;;;;;;;;;;;;;;;11.76;58.89;98420.38;5133426;27;19950;-54
2022/05/14 05:05:53;;;;;;;;;;;;;;;11.86;58.26;98419.38;5144630;27;19919;-47
2022/05/14 05:08:23;;;;;;;;;;;;;;;11.87;58.33;98420.97;5165115;27;19929;-57
2022/05/14 05:10:51;;;;;;;;;;;;;;;12.00;58.16;98416.63;5170986;27;19983;-57
2022/05/14 05:13:20;;;;;;;;;;;;;;;11.98;58.70;98416.91;5131802;27;19935;-57
2022/05/14 05:15:48;;;;;;;;;;;;;;;11.91;58.31;98421.97;5139506;27;19972;-57
2022/05/14 05:18:17;;;;;;;;;;;;;;;11.97;58.42;98430.84;5159629;27;19995;-57
2022/05/14 05:20:45;;;;;;;;;;;;;;;12.18;57.87;98425.72;5138469;27;20259;-57
2022/05/14 05:23:15;;;;;;;;;;;;;;;12.13;58.08;98429.38;5148336;27;20011;-57
2022/05/14 05:25:43;;;;;;;;;;;;;;;12.26;57.72;98430.44;5146591;27;20239;-56
2022/05/14 05:28:36;;;;;;;;;;;;;;;12.40;57.70;98431.16;5163663;27;20544;-58
2022/05/14 05:31:07;;;;;;;;;;;;;;;12.50;56.86;98433.63;5144252;27;19967;-57
2022/05/14 05:33:36;;;;;;;;;;;;;;;12.68;56.93;98431.84;5149645;27;20002;-57
2022/05/14 05:36:06;;;;;;;;;;;;;;;12.67;56.98;98432.13;5156191;27;19950;-58
2022/05/14 05:38:34;;;;;;;;;;;;;;;12.63;56.90;98436.63;5151002;27;19923;-57
2022/05/14 05:41:02;;;;;;;;;;;;;;;12.87;56.70;98441.72;5150821;27;19926;-53
2022/05/14 05:43:31;;;;;;;;;;;;;;;12.97;56.48;98444.16;5157109;27;19930;-52
2022/05/14 05:45:59;;;;;;;;;;;;;;;13.01;56.24;98443.22;5158285;27;20135;-53
2022/05/14 05:48:27;;;;;;;;;;;;;;;13.03;56.33;98445.63;5132922;27;19920;-56
2022/05/14 05:50:56;;;;;;;;;;;;;;;12.97;56.68;98447.69;5160889;27;19922;-56
2022/05/14 05:58:54;;;;;;;;;;;;;;;13.30;55.70;98441.91;5162592;27;19933;-57
2022/05/14 06:01:22;;;;;;;;;;;;;;;13.45;55.49;98446.16;5136379;27;19923;-56
2022/05/14 06:03:51;;;;;;;;;;;;;;;13.63;55.08;98439.59;5156417;27;20005;-58
2022/05/14 06:06:20;;;;;;;;;;;;;;;13.78;54.91;98443.81;5150795;27;19958;-57
2022/05/14 06:08:48;;;;;;;;;;;;;;;13.92;54.44;98444.47;5153645;27;20332;-57
2022/05/14 06:11:18;;;;;;;;;;;;;;;14.00;53.66;98440.94;5145850;27;20366;-57
2022/05/14 06:13:46;;;;;;;;;;;;;;;14.23;53.76;98443.53;5154004;27;20229;-57
2022/05/14 06:16:15;;;;;;;;;;;;;;;14.15;53.72;98448.66;5148540;27;19923;-55
2022/05/14 06:19:08;;;;;;;;;;;;;;;14.20;53.38;98446.88;5144055;27;20404;-57
2022/05/14 06:21:37;;;;;;;;;;;;;;;14.26;53.13;98448.34;5119621;27;20281;-56
2022/05/14 06:24:06;;;;;;;;;;;;;;;14.28;53.28;98446.91;5138597;27;20396;-56
2022/05/14 06:26:34;;;;;;;;;;;;;;;14.44;52.82;98457.34;5143695;27;19923;-59
2022/05/14 06:29:02;;;;;;;;;;;;;;;14.63;52.28;98453.16;5144171;27;19931;-59
2022/05/14 06:31:29;;;;;;;;;;;;;;;14.79;51.57;98449.91;5136859;27;19919;-59
2022/05/14 06:33:59;;;;;;;;;;;;;;;14.90;51.13;98451.16;5122105;27;19919;-59
2022/05/14 06:36:27;;;;;;;;;;;;;;;14.96;51.07;98447.09;5141525;27;20263;-60
2022/05/14 06:38:57;;;;;;;;;;;;;;;15.26;50.55;98456.19;5136493;27;19969;-59
2022/05/14 06:41:25;;;;;;;;;;;;;;;15.40;50.54;98447.75;5139982;27;19967;-59
2022/05/14 06:43:53;;;;;;;;;;;;;;;15.47;50.32;98448.03;5135292;27;19971;-57
2022/05/14 06:46:21;;;;;;;;;;;;;;;15.46;50.31;98452.72;5117539;27;19945;-60
2022/05/14 06:48:49;;;;;;;;;;;;;;;15.65;49.83;98452.31;5138540;27;19919;-59
2022/05/14 06:51:19;;;;;;;;;;;;;;;15.84;48.85;98451.88;5147074;27;19962;-60
2022/05/14 06:53:47;;;;;;;;;;;;;;;16.07;48.59;98448.81;5140566;27;19919;-58
2022/05/14 06:56:17;;;;;;;;;;;;;;;16.11;48.04;98450.56;5133052;27;19931;-58
2022/05/14 06:58:48;;;;;;;;;;;;;;;16.15;48.35;98456.19;5142569;27;19956;-58
2022/05/14 07:01:17;;;;;;;;;;;;;;;16.05;49.20;98460.13;5141793;27;19923;-58
2022/05/14 07:06:41;;;;;;;;;;;;;;;16.36;48.03;98450.69;5126389;27;19976;-58
2022/05/14 07:09:34;;;;;;;;;;;;;;;16.46;47.49;98456.56;5125303;27;19919;-58
2022/05/14 07:12:08;;;;;;;;;;;;;;;16.73;46.62;98455.19;5140884;27;19924;-58
2022/05/14 07:14:36;;;;;;;;;;;;;;;16.89;46.18;98457.31;5145177;27;20018;-59
2022/05/14 07:17:04;;;;;;;;;;;;;;;16.92;45.34;98445.63;5140379;27;20431;-58
2022/05/14 07:19:32;;;;;;;;;;;;;;;16.95;45.19;98453.19;5136659;27;19983;-57
2022/05/14 07:22:00;;;;;;;;;;;;;;;16.79;45.01;98449.50;5151423;27;19933;-58
2022/05/14 07:24:29;;;;;;;;;;;;;;;16.94;45.44;98451.59;5142450;27;19919;-59
2022/05/14 07:26:57;;;;;;;;;;;;;;;17.20;44.91;98456.75;5140714;27;19927;-58
2022/05/14 07:29:27;;;;;;;;;;;;;;;17.33;44.27;98457.59;5139555;27;19927;-58
2022/05/14 07:31:55;;;;;;;;;;;;;;;17.33;44.03;98461.13;5134317;27;20028;-58
2022/05/14 07:34:23;;;;;;;;;;;;;;;17.47;43.68;98458.03;5140533;27;20370;-58
2022/05/14 07:36:56;;;;;;;;;;;;;;;17.48;43.91;98451.41;5140361;27;19988;-58
2022/05/14 07:39:28;;;;;;;;;;;;;;;17.58;43.59;98452.88;5138685;27;19919;-59
2022/05/14 07:41:56;;;;;;;;;;;;;;;17.75;43.44;98458.19;5141389;27;20393;-58
2022/05/14 07:44:51;;;;;;;;;;;;;;;17.80;42.53;98457.97;5122834;27;20662;-58
2022/05/14 07:47:19;;;;;;;;;;;;;;;17.69;42.81;98452.09;5142353;27;19954;-59
2022/05/14 07:49:47;;;;;;;;;;;;;;;17.85;42.73;98459.69;5138997;27;20405;-58
2022/05/14 07:52:15;;;;;;;;;;;;;;;18.11;42.75;98454.59;5137993;27;20512;-58
2022/05/14 07:54:43;;;;;;;;;;;;;;;18.23;42.29;98440.78;5137817;27;19924;-59
2022/05/14 08:00:08;;;;;;;;;;;;;;;18.30;40.93;98443.75;5145630;27;19923;-58
2022/05/14 08:02:42;;;;;;;;;;;;;;;18.22;40.88;98441.94;5145627;27;19919;-58
2022/05/14 08:05:10;;;;;;;;;;;;;;;18.48;40.43;98438.75;5146174;27;19962;-59
2022/05/14 08:07:39;;;;;;;;;;;;;;;18.52;39.99;98444.34;5142012;27;19919;-59
2022/05/14 08:10:31;;;;;;;;;;;;;;;18.43;38.83;98443.69;5139878;27;19984;-58
2022/05/14 08:12:59;;;;;;;;;;;;;;;18.18;39.23;98445.75;5137846;27;19919;-59
2022/05/14 08:15:29;;;;;;;;;;;;;;;18.25;40.29;98451.44;5143250;27;19931;-58
2022/05/14 08:17:57;;;;;;;;;;;;;;;18.33;40.14;98445.81;5141197;27;19934;-58
2022/05/14 08:20:25;;;;;;;;;;;;;;;18.60;39.46;98443.41;5142179;27;19975;-59
2022/05/14 08:25:40;;;;;;;;;;;;;;;18.54;40.18;98453.06;5137899;27;20018;-59
2022/05/14 08:28:08;;;;;;;;;;;;;;;18.42;40.52;98448.38;5139732;27;19923;-59
2022/05/14 08:30:37;;;;;;;;;;;;;;;18.77;40.02;98451.38;5144057;27;19962;-59
2022/05/14 08:33:07;;;;;;;;;;;;;;;18.80;39.84;98450.69;5133450;27;20010;-59
2022/05/14 08:35:35;;;;;;;;;;;;;;;18.96;39.89;98447.13;5135361;27;19923;-59
2022/05/14 08:38:03;;;;;;;;;;;;;;;18.97;39.94;98446.00;5137354;27;20790;-57
2022/05/14 08:40:32;;;;;;;;;;;;;;;19.09;39.71;98446.69;5137655;27;19966;-59
2022/05/14 08:43:01;;;;;;;;;;;;;;;19.19;39.39;98441.81;5148116;27;20287;-59
2022/05/14 08:45:31;;;;;;;;;;;;;;;19.34;39.28;98446.53;5140046;27;20005;-59
2022/05/14 08:48:01;;;;;;;;;;;;;;;19.40;38.80;98447.06;5139568;27;19919;-59
2022/05/14 08:50:31;;;;;;;;;;;;;;;19.54;38.92;98444.63;5135052;27;19926;-59
2022/05/14 08:53:01;;;;;;;;;;;;;;;19.70;38.35;98450.97;5136681;27;19920;-59
2022/05/14 08:55:30;;;;;;;;;;;;;;;19.79;38.33;98446.06;5133524;27;19919;-59
2022/05/14 08:57:59;;;;;;;;;;;;;;;19.86;38.82;98450.94;5130649;27;19949;-59
2022/05/14 09:00:28;;;;;;;;;;;;;;;19.78;37.72;98441.72;5132657;27;20265;-59
2022/05/14 09:02:56;;;;;;;;;;;;;;;19.59;37.85;98441.63;5133667;27;19920;-60
2022/05/14 09:05:26;;;;;;;;;;;;;;;19.81;37.69;98440.19;5139758;27;19923;-59
2022/05/14 09:07:54;;;;;;;;;;;;;;;19.78;36.91;98438.94;5153249;27;20363;-59
2022/05/14 09:10:24;;;;;;;;;;;;;;;19.70;37.19;98430.88;5138632;27;19919;-57
2022/05/14 09:12:53;;;;;;;;;;;;;;;19.63;38.80;98443.31;5130699;27;20353;-59
2022/05/14 09:15:23;;;;;;;;;;;;;;;19.54;38.25;98437.16;5139108;27;19926;-58
2022/05/14 09:18:02;;;;;;;;;;;;;;;19.78;38.28;98433.44;5117427;27;19927;-59
2022/05/14 09:20:39;;;;;;;;;;;;;;;19.85;37.74;98433.59;5139101;27;19919;-59
2022/05/14 09:23:07;;;;;;;;;;;;;;;20.04;37.14;98427.31;5131483;27;19923;-59
2022/05/14 09:25:36;;;;;;;;;;;;;;;20.10;37.76;98430.59;5141621;27;19923;-60
2022/05/14 09:28:05;;;;;;;;;;;;;;;20.08;37.55;98427.38;5119909;27;20344;-60
2022/05/14 09:30:35;;;;;;;;;;;;;;;20.13;38.79;98427.91;5140956;27;19958;-59
2022/05/14 09:33:03;;;;;;;;;;;;;;;20.27;36.77;98437.63;5138067;27;19931;-59
2022/05/14 09:35:33;;;;;;;;;;;;;;;20.31;36.84;98433.78;5138576;27;20286;-59
2022/05/14 09:38:08;;;;;;;;;;;;;;;20.13;37.71;98432.59;5140187;27;19919;-59
2022/05/14 09:40:37;;;;;;;;;;;;;;;20.25;40.03;98435.25;5144981;27;19946;-60
2022/05/14 09:43:09;;;;;;;;;;;;;;;20.34;36.27;98427.53;5135095;27;20266;-59
2022/05/14 09:45:38;;;;;;;;;;;;;;;20.37;36.16;98432.34;5144992;27;19919;-60
2022/05/14 09:48:15;;;;;;;;;;;;;;;20.46;35.90;98426.63;5134658;27;20389;-59
2022/05/14 09:50:45;;;;;;;;;;;;;;;20.47;35.08;98424.66;5131868;27;19992;-59
2022/05/14 09:53:12;;;;;;;;;;;;;;;20.48;36.05;98426.25;5153730;27;20109;-59
2022/05/14 09:56:19;;;;;;;;;;;;;;;20.66;35.48;98427.41;5136627;27;19926;-60
2022/05/14 09:58:51;;;;;;;;;;;;;;;20.83;35.09;98429.72;5137650;27;19919;-60
2022/05/14 10:01:26;;;;;;;;;;;;;;;20.85;34.68;98424.63;5147276;27;21303;-57
2022/05/14 10:04:29;;;;;;;;;;;;;;;20.85;32.49;98424.63;5136962;27;20175;-59
2022/05/14 10:07:01;;;;;;;;;;;;;;;20.97;31.49;98420.06;5149115;27;20358;-59
2022/05/14 10:09:32;;;;;;;;;;;;;;;20.88;32.63;98418.38;5135110;27;20366;-59
2022/05/14 10:12:01;;;;;;;;;;;;;;;21.01;33.03;98418.19;5122734;27;19975;-58
2022/05/14 10:14:36;;;;;;;;;;;;;;;21.13;33.88;98412.47;5138312;27;20392;-59
2022/05/14 10:17:11;;;;;;;;;;;;;;;21.33;33.96;98405.72;5150753;27;20362;-59
2022/05/14 10:19:56;;;;;;;;;;;;;;;21.33;32.98;98405.72;5140413;27;19967;-58
2022/05/14 10:22:27;;;;;;;;;;;;;;;21.50;34.28;98414.66;5123764;27;20260;-59
2022/05/14 10:27:48;;;;;;;;;;;;;;;21.48;31.36;98406.75;5136680;27;19926;-59
2022/05/14 10:30:22;;;;;;;;;;;;;;;21.57;31.79;98400.94;5134995;27;19931;-59
2022/05/14 10:32:51;;;;;;;;;;;;;;;21.58;31.99;98394.28;5134321;27;19946;-58
2022/05/14 10:35:21;;;;;;;;;;;;;;;21.59;32.37;98404.16;5135282;27;20358;-59
2022/05/14 10:37:51;;;;;;;;;;;;;;;21.61;32.53;98401.81;5135189;27;20375;-59
2022/05/14 10:40:20;;;;;;;;;;;;;;;21.65;31.17;98400.69;5135369;27;19920;-59
2022/05/14 10:43:00;;;;;;;;;;;;;;;21.72;32.95;98394.47;5137834;27;19964;-58
2022/05/14 10:45:31;;;;;;;;;;;;;;;21.66;32.21;98401.47;5139470;27;20481;-57
2022/05/14 10:48:08;;;;;;;;;;;;;;;21.74;31.36;98397.66;5134199;27;19967;-58
2022/05/14 10:50:36;;;;;;;;;;;;;;;21.71;30.81;98399.19;5128753;27;19923;-59
2022/05/14 10:53:08;;;;;;;;;;;;;;;21.61;32.02;98399.03;5124655;27;19992;-58
2022/05/14 10:55:37;;;;;;;;;;;;;;;21.67;33.12;98394.78;5142097;27;19980;-59
2022/05/14 10:58:07;;;;;;;;;;;;;;;21.62;33.12;98390.38;5134423;27;19919;-58
2022/05/14 11:00:39;;;;;;;;;;;;;;;21.37;31.99;98376.19;5121514;27;19920;-59
2022/05/14 11:03:10;;;;;;;;;;;;;;;21.34;32.17;98378.88;5146417;27;19926;-59
2022/05/14 11:05:49;;;;;;;;;;;;;;;21.43;32.22;98380.22;5145825;27;19965;-59
2022/05/14 11:08:28;;;;;;;;;;;;;;;21.67;32.36;98375.41;5132680;27;19919;-59
2022/05/14 11:11:02;;;;;;;;;;;;;;;21.61;32.21;98376.91;5133710;27;19934;-59
2022/05/14 11:13:29;;;;;;;;;;;;;;;21.52;32.55;98373.63;5137187;27;19919;-59
2022/05/14 11:22:21;;;;;;;;;;;;;;;21.97;31.37;98367.16;5137041;27;19924;-60
2022/05/14 11:24:51;;;;;;;;;;;;;;;21.89;30.78;98369.03;5138917;27;19923;-60
2022/05/14 11:27:27;;;;;;;;;;;;;;;21.77;30.66;98372.00;5143217;27;19919;-59
2022/05/14 11:30:19;;;;;;;;;;;;;;;21.80;34.85;98357.44;5143512;27;19919;-59
2022/05/14 11:32:50;;;;;;;;;;;;;;;21.79;35.29;98363.34;5132780;27;19920;-59
2022/05/14 11:35:19;;;;;;;;;;;;;;;22.01;30.99;98361.66;5136199;27;19919;-59
2022/05/14 11:37:47;;;;;;;;;;;;;;;22.03;30.72;98357.34;5142141;27;19923;-60
2022/05/14 11:40:29;;;;;;;;;;;;;;;21.98;30.75;98357.66;5141490;27;20002;-59
2022/05/14 11:43:08;;;;;;;;;;;;;;;21.96;31.35;98349.75;5139548;27;19923;-58
2022/05/14 11:45:39;;;;;;;;;;;;;;;21.98;30.40;98346.59;5143969;27;19919;-60
2022/05/14 11:48:07;;;;;;;;;;;;;;;22.06;30.17;98353.84;5141123;27;19969;-60
2022/05/14 11:50:38;;;;;;;;;;;;;;;22.14;31.80;98344.47;5145682;27;20259;-61
2022/05/14 11:53:11;;;;;;;;;;;;;;;22.02;30.43;98349.41;5141815;27;19919;-61
2022/05/14 11:55:42;;;;;;;;;;;;;;;21.89;29.61;98355.19;5138680;27;19926;-60
2022/05/14 11:58:12;;;;;;;;;;;;;;;21.96;29.96;98347.00;5143367;27;20359;-61
2022/05/14 12:00:40;;;;;;;;;;;;;;;22.12;29.30;98346.03;5133045;27;19923;-62
2022/05/14 12:03:10;;;;;;;;;;;;;;;22.00;29.51;98338.75;5146142;27;20011;-61
2022/05/14 12:05:40;;;;;;;;;;;;;;;22.04;30.66;98336.00;5147889;27;19967;-62
2022/05/14 12:08:25;;;;;;;;;;;;;;;22.14;29.24;98344.47;5136862;27;20342;-61
2022/05/14 12:10:57;;;;;;;;;;;;;;;22.07;31.67;98338.81;5125338;27;19919;-61
2022/05/14 12:13:28;;;;;;;;;;;;;;;21.97;32.30;98343.03;5139605;27;20316;-61
2022/05/14 12:15:57;;;;;;;;;;;;;;;22.12;29.89;98334.94;5140869;27;19961;-61
2022/05/14 12:18:25;;;;;;;;;;;;;;;22.12;29.53;98334.94;5140484;27;19919;-61
2022/05/14 12:20:56;;;;;;;;;;;;;;;22.13;30.80;98328.25;5139876;27;19919;-61
2022/05/14 12:23:23;;;;;;;;;;;;;;;;;;5122412;27;20398;-61
2022/05/14 12:25:52;;;;;;;;;;;;;;;22.02;29.36;98319.78;5125418;27;19932;-61
2022/05/14 12:28:25;;;;;;;;;;;;;;;21.87;29.47;98320.78;5143970;27;19930;-61
2022/05/14 12:34:08;;;;;;;;;;;;;;;22.15;30.80;98320.34;5140395;27;19919;-61
2022/05/14 12:36:36;;;;;;;;;;;;;;;22.13;31.93;98319.94;5149237;27;19968;-62
2022/05/14 12:39:07;;;;;;;;;;;;;;;22.17;29.60;98321.56;5142626;27;19931;-60
2022/05/14 12:41:40;;;;;;;;;;;;;;;22.33;29.12;98312.25;5138394;27;19919;-62
2022/05/14 12:44:12;;;;;;;;;;;;;;;22.10;28.99;98299.34;5139034;27;19960;-60
2022/05/14 12:46:41;;;;;;;;;;;;;;;22.01;28.76;98301.59;5138672;27;19923;-59
2022/05/14 12:49:15;;;;;;;;;;;;;;;22.09;30.29;98305.22;5123770;27;19939;-59
2022/05/14 12:51:46;;;;;;;;;;;;;;;22.31;30.12;98297.97;5142389;27;19924;-58
2022/05/14 12:54:18;;;;;;;;;;;;;;;22.39;28.80;98303.22;5136303;27;19922;-59
2022/05/14 12:56:46;;;;;;;;;;;;;;;22.49;29.29;98293.44;5136069;27;19919;-58
2022/05/14 12:59:15;;;;;;;;;;;;;;;22.40;30.32;98302.03;5136114;27;19931;-58
2022/05/14 13:01:43;;;;;;;;;;;;;;;22.39;30.05;98281.06;5141083;27;19975;-61
2022/05/14 13:04:11;;;;;;;;;;;;;;;22.25;32.31;98294.75;5133333;27;19923;-60
2022/05/14 13:06:41;;;;;;;;;;;;;;;22.40;28.66;98282.66;5138302;27;20197;-62
2022/05/14 13:09:10;;;;;;;;;;;;;;;22.46;27.76;98283.09;5137568;27;20339;-61
2022/05/14 13:11:44;;;;;;;;;;;;;;;22.48;30.16;98278.81;5137620;27;19923;-62
2022/05/14 13:14:12;;;;;;;;;;;;;;;22.48;28.27;98281.56;5133086;27;19926;-62
2022/05/14 13:19:36;;;;;;;;;;;;;;;22.41;30.27;98277.91;5140071;27;19918;-62
2022/05/14 13:22:08;;;;;;;;;;;;;;;22.30;31.28;98275.03;5142712;27;19919;-61
2022/05/14 13:24:36;;;;;;;;;;;;;;;22.36;27.57;98279.06;5137704;27;20390;-61
2022/05/14 13:27:09;;;;;;;;;;;;;;;22.35;30.42;98274.69;5127173;27;19919;-59
2022/05/14 13:29:38;;;;;;;;;;;;;;;22.45;31.41;98274.00;5138440;27;19926;-61
2022/05/14 13:32:11;;;;;;;;;;;;;;;22.39;27.49;98272.78;5138975;27;19925;-56
2022/05/14 13:37:30;;;;;;;;;;;;;;;22.30;28.04;98263.97;5134645;27;20270;-61
2022/05/14 13:42:52;;;;;;;;;;;;;;;22.46;27.06;98261.75;5140286;27;19927;-59
2022/05/14 13:45:24;;;;;;;;;;;;;;;22.49;27.84;98268.53;5143155;27;19926;-61
2022/05/14 13:47:57;;;;;;;;;;;;;;;22.61;27.64;98250.81;5125034;27;20963;-63
2022/05/14 13:50:26;;;;;;;;;;;;;;;22.42;29.75;98266.47;5133377;27;20347;-63